Time;durP1;ratioP1;P1;durP2;ratioP2;P2;SDS_P1;SDS_P2;PMS_P1;PMS_P2;Temp;Humidity;BMP_temperature;BMP_pressure;BME280_temperature;BME280_humidity;BME280_pressure;Samples;Min_cycle;Max_cycle;Signal;HPM_P1;HPM_P2
2023/11/26 00:02:11;;;;;;;;;0.00;0.00;;;;;8.88;59.01;98435.97;146611;575;48010;-72
2023/11/26 00:05:30;;;;;;;;;0.00;0.00;;;;;8.91;59.79;98443.78;146616;578;46010;-69
2023/11/26 00:08:30;;;;;;;;;0.50;0.50;;;;;8.28;58.98;98340.75;146615;702;47012;-70
2023/11/26 00:11:27;;;;;;;;;0.00;0.00;;;;;8.85;56.07;98451.41;146616;655;45020;-70
2023/11/26 00:14:26;;;;;;;;;0.00;0.00;;;;;8.79;54.32;98471.94;146612;563;46017;-72
2023/11/26 00:17:31;;;;;;;;;0.00;0.00;;;;;8.73;53.45;98490.75;146615;577;46014;-71
2023/11/26 00:20:35;;;;;;;;;0.00;0.00;;;;;8.65;53.02;98494.88;146611;603;46012;-69
2023/11/26 00:23:28;;;;;;;;;0.00;0.00;;;;;8.63;54.45;98490.50;146616;590;47030;-69
2023/11/26 00:26:27;;;;;;;;;0.00;0.00;;;;;8.61;55.05;98490.47;146614;611;46012;-69
2023/11/26 00:29:22;;;;;;;;;0.75;0.00;;;;;8.60;54.81;98503.34;146610;576;47010;-68
2023/11/26 00:32:29;;;;;;;;;0.00;0.00;;;;;8.58;55.28;98505.91;146614;575;46016;-68
2023/11/26 00:35:35;;;;;;;;;0.50;0.00;;;;;8.56;54.42;98510.16;146610;620;47010;-69
2023/11/26 00:38:45;;;;;;;;;0.00;0.00;;;;;8.58;54.90;98510.19;146613;576;47014;-70
2023/11/26 00:41:47;;;;;;;;;0.00;0.00;;;;;8.45;51.74;98512.50;146616;574;46020;-68
2023/11/26 00:44:48;;;;;;;;;0.00;0.00;;;;;8.46;53.91;98526.28;146613;661;46012;-70
2023/11/26 00:47:46;;;;;;;;;1.00;0.00;;;;;8.44;53.76;98533.09;146615;668;47010;-70
2023/11/26 00:50:45;;;;;;;;;0.00;0.00;;;;;8.43;53.73;98541.69;146614;574;47012;-69
2023/11/26 00:53:43;;;;;;;;;0.00;0.00;;;;;8.44;53.68;98541.75;146614;665;47018;-70
2023/11/26 00:56:51;;;;;;;;;0.50;0.50;;;;;8.44;55.38;98561.50;146612;654;46017;-71
2023/11/26 00:59:53;;;;;;;;;0.00;0.00;;;;;8.44;54.33;98575.31;146614;580;46010;-69
2023/11/26 01:03:08;;;;;;;;;0.00;0.00;;;;;6.57;54.89;98278.94;146611;615;46014;-70
2023/11/26 01:06:19;;;;;;;;;1.75;0.50;;;;;7.21;53.99;98390.59;146616;605;46020;-69
2023/11/26 01:09:15;;;;;;;;;1.75;1.00;;;;;8.36;54.03;98594.00;146615;658;45033;-68
2023/11/26 01:12:14;;;;;;;;;1.00;1.00;;;;;8.29;52.38;98604.16;146615;669;46010;-71
2023/11/26 01:15:21;;;;;;;;;3.00;1.75;;;;;8.29;52.83;98606.75;146611;582;46016;-72
2023/11/26 01:18:22;;;;;;;;;0.00;0.00;;;;;8.31;53.82;98601.59;146612;570;46010;-71
2023/11/26 01:21:17;;;;;;;;;0.25;0.25;;;;;8.34;53.87;98617.19;146611;566;46012;-72
2023/11/26 01:24:35;;;;;;;;;2.00;1.50;;;;;6.60;53.76;98315.06;146614;577;47020;-70
2023/11/26 01:27:27;;;;;;;;;2.50;1.00;;;;;8.39;53.99;98628.56;146614;669;46013;-69
2023/11/26 01:30:31;;;;;;;;;0.25;0.25;;;;;8.43;52.87;98645.88;146617;581;46020;-70
2023/11/26 01:33:35;;;;;;;;;1.00;1.00;;;;;8.40;51.47;98650.06;146613;635;46017;-68
2023/11/26 01:36:36;;;;;;;;;1.50;1.00;;;;;8.38;51.62;98667.19;146611;566;47020;-69
2023/11/26 01:39:31;;;;;;;;;0.00;0.00;;;;;8.34;51.86;98667.13;146615;605;46014;-71
2023/11/26 01:42:31;;;;;;;;;0.00;0.00;;;;;8.30;51.57;98670.44;146616;570;46010;-70
2023/11/26 01:45:25;;;;;;;;;3.00;1.75;;;;;8.32;53.02;98676.53;146613;709;45016;-68
2023/11/26 01:48:32;;;;;;;;;3.00;3.00;;;;;8.34;53.79;98687.78;146614;571;46021;-68
2023/11/26 01:51:31;;;;;;;;;0.00;0.00;;;;;8.38;54.16;98693.03;146613;596;47012;-69
2023/11/26 01:54:28;;;;;;;;;2.00;2.00;;;;;8.40;53.96;98692.25;146617;584;46020;-70
2023/11/26 01:57:28;;;;;;;;;2.50;1.75;;;;;8.43;53.66;98699.22;146610;737;46014;-70
2023/11/26 02:00:31;;;;;;;;;2.75;2.00;;;;;8.43;53.49;98710.44;146614;569;46020;-70
2023/11/26 02:03:44;;;;;;;;;1.00;0.50;;;;;8.40;52.17;98717.22;146612;621;46016;-68
2023/11/26 02:06:55;;;;;;;;;0.75;0.75;;;;;8.34;51.37;98718.75;146615;656;46010;-68
2023/11/26 02:09:55;;;;;;;;;0.00;0.00;;;;;8.30;50.74;98718.66;146611;680;46016;-68
2023/11/26 02:13:30;;;;;;;;;0.00;0.00;;;;;8.23;51.70;98717.59;146614;572;46014;-68
2023/11/26 02:16:24;;;;;;;;;2.50;1.00;;;;;8.22;51.65;98735.63;146614;636;46913;-68
2023/11/26 02:19:42;;;;;;;;;2.00;1.00;;;;;6.57;50.65;98461.72;146616;676;46010;-73
2023/11/26 02:22:46;;;;;;;;;1.25;1.00;;;;;8.15;50.65;98750.06;146613;575;46035;-71
2023/11/26 02:25:46;;;;;;;;;2.25;1.75;;;;;8.21;52.61;98747.66;146611;602;46021;-72
2023/11/26 02:28:48;;;;;;;;;0.00;0.00;;;;;8.21;50.88;98754.53;146617;597;46012;-72
2023/11/26 02:32:04;;;;;;;;;;;;;;;;;;;;;
2023/11/26 02:35:12;;;;;;;;;1.00;0.00;;;;;8.23;51.99;98766.66;146613;597;47012;-67
2023/11/26 02:38:13;;;;;;;;;1.00;0.00;;;;;8.25;52.01;98780.47;146614;645;46014;-68
2023/11/26 02:41:05;;;;;;;;;4.00;2.50;;;;;8.29;53.21;98786.63;146613;655;46017;-71
2023/11/26 02:44:06;;;;;;;;;1.00;1.00;;;;;8.33;53.41;98791.91;146615;569;46020;-71
2023/11/26 02:46:59;;;;;;;;;3.25;2.00;;;;;8.37;53.07;98790.28;146613;684;45016;-70
2023/11/26 02:50:02;;;;;;;;;2.00;1.00;;;;;8.38;54.11;98802.41;146614;573;46021;-70
2023/11/26 02:53:05;;;;;;;;;1.00;1.00;;;;;8.37;54.49;98813.53;146616;650;46014;-68
2023/11/26 02:56:12;;;;;;;;;2.50;1.25;;;;;8.36;54.67;98819.53;146616;653;47010;-70
2023/11/26 02:59:27;;;;;;;;;7.00;6.00;;;;;8.39;56.01;98819.66;146611;603;46014;-70
2023/11/26 03:02:25;;;;;;;;;1.00;1.00;;;;;8.44;56.14;98831.00;146613;573;46010;-70
2023/11/26 03:05:21;;;;;;;;;2.00;2.00;;;;;8.43;55.42;98851.59;146613;671;46012;-68
2023/11/26 03:08:38;;;;;;;;;1.75;0.75;;;;;6.81;54.38;98581.81;146615;602;46020;-69
2023/11/26 03:14:54;;;;;;;;;0.50;0.25;;;;;8.47;53.35;98894.78;146615;566;47010;-69
2023/11/26 03:18:04;;;;;;;;;1.00;1.00;;;;;6.78;53.68;98617.75;146611;676;46017;-69
2023/11/26 03:21:15;;;;;;;;;1.75;1.75;;;;;8.40;53.71;98909.22;146611;726;46020;-73
2023/11/26 03:25:03;;;;;;;;;0.00;0.00;;;;;6.66;52.34;98628.53;146609;631;46016;-72
2023/11/26 03:28:05;;;;;;;;;0.25;0.25;;;;;8.23;51.59;98925.87;146609;566;47021;-72
2023/11/26 03:30:59;;;;;;;;;0.25;0.25;;;;;8.16;51.77;98929.97;146615;652;46016;-69
2023/11/26 03:34:12;;;;;;;;;0.50;0.50;;;;;8.06;51.49;98943.38;146615;625;46021;-69
2023/11/26 03:37:13;;;;;;;;;1.50;0.00;;;;;7.98;51.87;98945.72;146612;592;47023;-70
2023/11/26 03:40:16;;;;;;;;;0.50;0.50;;;;;7.93;52.17;98938.66;146614;659;46021;-70
2023/11/26 03:43:17;;;;;;;;;0.50;0.50;;;;;7.89;52.02;98953.16;146615;581;46012;-70
2023/11/26 03:46:11;;;;;;;;;2.00;1.00;;;;;7.84;51.93;98954.69;146617;569;45032;-71
2023/11/26 03:49:24;;;;;;;;;1.00;1.00;;;;;7.81;52.82;98958.03;146615;626;45017;-72
2023/11/26 03:52:26;;;;;;;;;1.00;1.00;;;;;7.81;53.48;98962.34;146615;689;46020;-68
2023/11/26 03:55:21;;;;;;;;;1.00;1.00;;;;;7.82;53.91;98964.13;146615;633;45029;-68
2023/11/26 03:58:23;;;;;;;;;2.50;2.50;;;;;7.80;53.74;98979.53;146612;582;46010;-70
2023/11/26 04:01:24;;;;;;;;;1.25;1.00;;;;;7.83;54.33;98978.75;146609;563;47016;-69
2023/11/26 04:04:39;;;;;;;;;2.00;2.00;;;;;7.85;53.52;98975.41;146613;578;46021;-70
2023/11/26 04:07:40;;;;;;;;;1.75;1.75;;;;;7.84;53.22;98983.94;146613;564;46012;-71
2023/11/26 04:10:52;;;;;;;;;1.00;1.00;;;;;7.09;53.56;98877.31;146613;680;46010;-71
2023/11/26 04:13:53;;;;;;;;;3.75;2.50;;;;;7.88;53.32;99000.41;146615;621;47012;-74
2023/11/26 04:16:52;;;;;;;;;1.50;1.50;;;;;7.90;53.66;99000.47;146616;728;46014;-71
2023/11/26 04:19:44;;;;;;;;;1.00;1.00;;;;;7.89;53.46;99009.94;146612;631;47017;-72
2023/11/26 04:22:39;;;;;;;;;1.25;1.25;;;;;7.87;52.78;99007.28;146615;565;46014;-74
2023/11/26 04:25:52;;;;;;;;;1.00;1.00;;;;;7.84;53.34;99012.34;146611;579;47012;-75
2023/11/26 04:28:57;;;;;;;;;0.50;0.00;;;;;7.82;52.62;99013.13;146616;694;45020;-74
2023/11/26 04:31:50;;;;;;;;;1.00;1.00;;;;;7.77;52.17;99017.25;146615;598;46017;-73
2023/11/26 04:35:00;;;;;;;;;0.50;0.50;;;;;7.73;51.88;99030.88;146616;564;46020;-74
2023/11/26 04:37:58;;;;;;;;;0.75;0.75;;;;;7.71;52.89;99043.69;146614;630;46016;-71
2023/11/26 04:40:56;;;;;;;;;0.50;0.50;;;;;7.69;52.83;99065.97;146615;579;46011;-69
2023/11/26 04:43:57;;;;;;;;;2.25;1.00;;;;;7.71;53.66;99084.97;146618;609;46012;-71
2023/11/26 04:46:58;;;;;;;;;1.00;1.00;;;;;7.72;53.85;99089.31;146615;599;46020;-70
2023/11/26 04:50:16;;;;;;;;;2.00;2.00;;;;;7.73;54.40;99105.69;146613;566;46016;-72
2023/11/26 04:53:20;;;;;;;;;4.25;4.25;;;;;7.72;53.34;99117.69;146615;591;46010;-71
2023/11/26 04:56:17;;;;;;;;;1.00;1.00;;;;;7.69;53.33;99117.56;146612;597;46916;-70
2023/11/26 04:59:17;;;;;;;;;0.75;0.75;;;;;7.70;54.03;99137.41;146614;623;46010;-72
2023/11/26 05:02:32;;;;;;;;;0.75;0.75;;;;;5.99;54.53;98856.94;146609;566;46016;-72
2023/11/26 05:05:38;;;;;;;;;1.50;1.50;;;;;7.72;54.04;99160.66;146613;569;46014;-72
2023/11/26 05:08:41;;;;;;;;;5.00;4.75;;;;;7.74;53.67;99179.69;146612;609;46012;-71
2023/11/26 05:11:46;;;;;;;;;1.50;1.50;;;;;7.70;54.14;99186.44;146616;631;46020;-72
2023/11/26 05:14:51;;;;;;;;;14.75;14.75;;;;;7.68;53.61;99193.22;146604;605;46016;-73
2023/11/26 05:17:54;;;;;;;;;8.00;8.00;;;;;7.67;54.71;99196.62;146609;578;46020;-70
2023/11/26 05:20:57;;;;;;;;;15.50;14.00;;;;;7.68;54.13;99205.25;146609;602;46012;-71
2023/11/26 05:24:12;;;;;;;;;10.25;8.75;;;;;7.71;54.59;99216.56;146608;589;46021;-70
2023/11/26 05:27:09;;;;;;;;;8.75;7.25;;;;;7.72;54.34;99226.03;146610;583;46917;-71
2023/11/26 05:30:27;;;;;;;;;3.00;3.00;;;;;5.97;55.34;98933.19;146614;602;45020;-71
2023/11/26 05:33:32;;;;;;;;;11.75;9.25;;;;;7.70;54.42;99244.91;146612;643;46014;-70
2023/11/26 05:36:30;;;;;;;;;6.50;6.50;;;;;7.69;54.06;99256.88;146618;593;46020;-71
2023/11/26 05:39:40;;;;;;;;;11.25;10.00;;;;;5.97;55.03;98955.47;146608;608;47915;-73
2023/11/26 05:42:37;;;;;;;;;12.25;9.75;;;;;7.78;54.39;99277.87;146607;565;46014;-71
2023/11/26 05:45:50;;;;;;;;;18.00;16.25;;;;;7.76;53.42;99292.44;146608;598;47012;-70
2023/11/26 05:49:13;;;;;;;;;5.75;5.75;;;;;6.04;54.65;99013.19;146618;738;46014;-69
2023/11/26 05:52:09;;;;;;;;;4.00;4.00;;;;;7.83;54.22;99316.78;146613;653;46016;-69
2023/11/26 05:55:06;;;;;;;;;5.00;4.50;;;;;7.86;54.00;99332.41;146618;619;46014;-69
2023/11/26 05:58:01;;;;;;;;;9.25;8.00;;;;;7.93;54.54;99339.56;146609;671;45033;-71
2023/11/26 06:01:34;;;;;;;;;;;;;;;;;;;;;
2023/11/26 06:04:33;;;;;;;;;8.75;8.50;;;;;8.43;56.83;99368.19;146610;614;46016;-70
2023/11/26 06:07:35;;;;;;;;;10.00;8.75;;;;;9.45;58.08;99371.88;146612;576;46020;-70
2023/11/26 06:10:31;;;;;;;;;7.50;7.00;;;;;10.79;53.94;99371.78;146615;570;46017;-70
2023/11/26 06:13:27;;;;;;;;;5.00;4.25;;;;;12.24;49.34;99381.56;146618;691;46010;-72
2023/11/26 06:16:44;;;;;;;;;3.25;3.25;;;;;13.60;46.50;99386.97;146612;593;46016;-72
2023/11/26 06:20:02;;;;;;;;;4.75;3.75;;;;;14.52;43.50;99396.31;146611;696;47010;-70
2023/11/26 06:23:24;;;;;;;;;;;;;;;;;;;;;
2023/11/26 06:26:38;;;;;;;;;10.00;9.75;;;;;13.15;44.72;99163.19;146608;638;47010;-69
2023/11/26 06:29:32;;;;;;;;;7.25;6.50;;;;;14.28;40.91;99415.03;146613;575;46016;-70
2023/11/26 06:32:30;;;;;;;;;10.25;9.25;;;;;13.85;41.66;99427.34;146612;647;46021;-69
2023/11/26 06:35:28;;;;;;;;;0.00;0.00;;;;;13.43;41.48;99429.19;146615;582;47012;-68
2023/11/26 06:38:28;;;;;;;;;16.25;14.00;;;;;13.00;42.71;99437.00;146608;567;46021;-69
2023/11/26 06:41:40;;;;;;;;;2.00;2.00;;;;;12.50;45.13;99438.50;146616;572;46016;-70
2023/11/26 06:44:50;;;;;;;;;;;;;;;;;;;;;
2023/11/26 06:47:47;;;;;;;;;5.25;3.75;;;;;11.82;45.11;99438.56;146607;668;46014;-73
2023/11/26 06:50:41;;;;;;;;;3.00;1.00;;;;;11.62;42.94;99441.53;146617;595;47010;-72
2023/11/26 06:53:33;;;;;;;;;16.25;15.00;;;;;11.51;46.06;99459.37;146606;597;46016;-72
2023/11/26 06:56:38;;;;;;;;;;;;;;;;;;;;;
2023/11/26 06:59:38;;;;;;;;;7.50;7.50;;;;;11.39;45.46;99478.94;146606;595;47016;-72
2023/11/26 07:02:42;;;;;;;;;12.25;12.25;;;;;11.35;47.13;99492.69;146611;570;46010;-75
2023/11/26 07:05:38;;;;;;;;;8.50;7.25;;;;;11.37;47.41;99493.56;146612;606;46016;-71
2023/11/26 07:08:32;;;;;;;;;3.25;3.25;;;;;11.39;45.13;99508.38;146613;689;48010;-71
2023/11/26 07:11:35;;;;;;;;;;;;;;;;;;;;;
2023/11/26 07:14:31;;;;;;;;;7.50;6.75;;;;;11.47;47.26;99511.19;146613;702;46020;-70
2023/11/26 07:17:36;;;;;;;;;7.50;7.25;;;;;11.57;47.72;99518.38;146613;564;46016;-70
2023/11/26 07:20:45;;;;;;;;;12.00;9.50;;;;;11.74;45.84;99532.72;146611;563;46010;-71
2023/11/26 07:23:47;;;;;;;;;25.00;22.50;;;;;11.97;44.48;99542.88;146609;565;46013;-71
2023/11/26 07:26:49;;;;;;;;;8.00;7.00;;;;;12.14;46.55;99562.38;146615;598;46020;-70
2023/11/26 07:29:45;;;;;;;;;3.00;2.50;;;;;12.16;43.74;99570.22;146617;660;46016;-69
2023/11/26 07:32:50;;;;;;;;;6.25;6.25;;;;;10.67;45.21;99331.66;146620;573;46010;-70
2023/11/26 07:36:10;;;;;;;;;;;;;;;;;;;;;
2023/11/26 07:39:18;;;;;;;;;3.25;2.75;;;;;11.91;42.60;99607.66;146617;588;46023;-72
2023/11/26 07:42:22;;;;;;;;;12.00;11.00;;;;;11.79;43.30;99621.16;146606;563;46016;-73
2023/11/26 07:45:26;;;;;;;;;5.25;1.50;;;;;10.90;40.45;99514.69;146615;569;47011;-71
2023/11/26 07:48:27;;;;;;;;;1.50;1.50;;;;;11.15;42.55;99624.41;146612;663;47021;-71
2023/11/26 07:51:25;;;;;;;;;4.00;4.00;;;;;10.71;44.48;99626.44;146616;708;46021;-73
2023/11/26 07:54:19;;;;;;;;;2.50;2.50;;;;;10.30;43.33;99636.31;146612;635;46017;-71
2023/11/26 07:57:15;;;;;;;;;4.25;1.75;;;;;10.05;45.38;99637.13;146614;632;46010;-74
2023/11/26 08:00:38;;;;;;;;;4.75;4.75;;;;;9.95;48.81;99651.44;146607;663;47918;-72
2023/11/26 08:03:42;;;;;;;;;3.00;3.00;;;;;10.17;47.42;99659.16;146615;718;46020;-71
2023/11/26 08:06:48;;;;;;;;;2.75;2.75;;;;;10.57;47.93;99658.00;146609;588;46918;-73
2023/11/26 08:09:51;;;;;;;;;5.00;4.25;;;;;11.02;46.25;99673.28;146614;648;46010;-74
2023/11/26 08:12:52;;;;;;;;;3.50;3.50;;;;;11.35;45.17;99692.50;146610;579;46017;-73
2023/11/26 08:15:50;;;;;;;;;3.25;3.25;;;;;11.51;42.55;99690.44;146615;595;46014;-77
2023/11/26 08:18:51;;;;;;;;;4.00;3.00;;;;;11.60;43.15;99700.22;146614;628;46014;-74
2023/11/26 08:21:53;;;;;;;;;4.75;4.50;;;;;11.55;41.66;99709.56;146611;570;46918;-72
2023/11/26 08:25:02;;;;;;;;;5.25;3.50;;;;;11.65;44.62;99721.13;146613;571;46014;-74
2023/11/26 08:28:07;;;;;;;;;8.75;7.75;;;;;11.73;41.77;99722.25;146612;590;45020;-72
2023/11/26 08:31:27;;;;;;;;;1.67;1.67;;;;;11.73;41.06;99730.03;146612;591;46016;-71
2023/11/26 08:34:33;;;;;;;;;;;;;;;;;;;;;
2023/11/26 08:37:29;;;;;;;;;3.75;3.00;;;;;11.87;40.85;99746.97;146609;618;46016;-74
2023/11/26 08:40:33;;;;;;;;;6.00;6.00;;;;;12.01;45.60;99760.34;146612;675;46010;-72
2023/11/26 08:43:28;;;;;;;;;5.50;4.00;;;;;12.17;40.46;99759.09;146611;606;45585;-71
2023/11/26 08:46:29;;;;;;;;;4.00;4.00;;;;;12.39;43.63;99755.41;146610;612;46010;-73
2023/11/26 08:49:36;;;;;;;;;5.00;5.00;;;;;11.87;41.01;99661.25;146609;604;46016;-72
2023/11/26 08:52:34;;;;;;;;;3.50;3.00;;;;;12.48;42.21;99755.66;146613;679;46014;-72
2023/11/26 08:55:33;;;;;;;;;6.50;5.75;;;;;12.60;39.56;99752.53;146606;577;46016;-72
2023/11/26 08:58:36;;;;;;;;;3.33;1.67;;;;;12.66;38.64;99766.56;146613;582;46010;-72
2023/11/26 09:01:34;;;;;;;;;1.67;1.67;;;;;12.61;37.30;99772.47;146614;631;46016;-72
2023/11/26 09:04:26;;;;;;;;;4.00;4.00;;;;;12.47;36.80;99775.56;146610;569;46917;-71
2023/11/26 09:07:35;;;;;;;;;4.25;2.75;;;;;12.30;36.86;99795.00;146608;579;47013;-70
2023/11/26 09:10:39;;;;;;;;;5.00;5.00;;;;;12.35;39.06;99802.94;146608;736;47010;-73
2023/11/26 09:13:32;;;;;;;;;5.00;5.00;;;;;12.35;37.47;99797.75;146611;610;46016;-72
2023/11/26 09:16:39;;;;;;;;;;;;;;;;;;;;;
2023/11/26 09:19:35;;;;;;;;;2.00;2.00;;;;;12.54;38.84;99800.03;146613;598;46016;-74
2023/11/26 09:22:30;;;;;;;;;5.50;5.00;;;;;12.54;37.26;99786.16;146610;575;47010;-72
2023/11/26 09:25:24;;;;;;;;;1.00;1.00;;;;;12.54;36.84;99801.75;146608;609;46016;-72
2023/11/26 09:28:26;;;;;;;;;5.75;3.75;;;;;12.48;37.93;99805.94;146614;664;46021;-71
2023/11/26 09:31:20;;;;;;;;;3.50;3.25;;;;;12.34;36.16;99799.47;146608;579;47917;-72
2023/11/26 09:34:29;;;;;;;;;3.00;1.33;;;;;12.31;36.14;99809.78;146619;577;45020;-73
2023/11/26 09:37:24;;;;;;;;;2.75;2.75;;;;;12.31;37.59;99803.69;146605;615;47918;-71
2023/11/26 09:40:25;;;;;;;;;3.00;3.00;;;;;12.22;36.64;99812.09;146612;634;47010;-71
2023/11/26 09:43:25;;;;;;;;;4.00;3.75;;;;;12.20;36.68;99806.84;146612;666;46016;-73
2023/11/26 09:46:29;;;;;;;;;4.75;2.25;;;;;12.25;38.59;99828.66;146612;638;46020;-71
2023/11/26 09:49:29;;;;;;;;;5.50;4.50;;;;;12.31;36.73;99825.37;146611;569;46016;-70
2023/11/26 09:52:29;;;;;;;;;6.75;5.75;;;;;12.40;38.19;99824.78;146611;572;46918;-72
2023/11/26 09:55:28;;;;;;;;;3.25;2.50;;;;;12.42;37.27;99836.94;146608;582;47010;-71
2023/11/26 09:58:25;;;;;;;;;3.67;3.67;;;;;12.44;37.49;99839.63;146614;616;46021;-72
2023/11/26 10:01:47;;;;;;;;;2.67;2.00;;;;;12.52;39.32;99856.28;146612;591;46014;-72
2023/11/26 10:04:54;;;;;;;;;7.25;5.00;;;;;12.67;39.25;99855.87;146612;629;46020;-71
2023/11/26 10:07:52;;;;;;;;;3.75;3.75;;;;;12.74;36.34;99857.84;146608;746;47012;-72
2023/11/26 10:11:10;;;;;;;;;2.00;2.00;;;;;12.87;36.32;99869.47;146614;638;47023;-72
2023/11/26 10:14:04;;;;;;;;;6.00;4.50;;;;;12.86;34.53;99867.69;146609;567;47012;-70
2023/11/26 10:17:16;;;;;;;;;4.50;4.00;;;;;12.86;34.99;99871.16;146612;686;47010;-72
2023/11/26 10:20:32;;;;;;;;;8.75;8.50;;;;;13.01;35.95;99868.09;146604;672;47017;-70
2023/11/26 10:23:42;;;;;;;;;7.00;5.00;;;;;13.17;36.65;99870.28;146610;569;46020;-72
2023/11/26 10:26:43;;;;;;;;;8.25;7.75;;;;;13.28;35.18;99869.75;146611;681;46012;-72
2023/11/26 10:30:03;;;;;;;;;6.25;5.25;;;;;13.38;36.40;99869.13;146616;594;46020;-72
2023/11/26 10:32:59;;;;;;;;;6.50;5.50;;;;;13.42;35.06;99860.56;146609;601;47016;-71
2023/11/26 10:36:34;;;;;;;;;14.00;12.00;;;;;12.91;36.75;99777.63;146611;582;46020;-71
2023/11/26 10:39:30;;;;;;;;;6.67;6.67;;;;;13.61;36.66;99881.03;146610;580;46016;-72
2023/11/26 10:42:30;;;;;;;;;8.50;7.00;;;;;13.71;36.16;99879.56;146614;599;46010;-71
2023/11/26 10:45:37;;;;;;;;;10.75;7.75;;;;;13.74;34.93;99887.44;146608;570;47012;-74
2023/11/26 10:49:25;;;;;;;;;11.50;9.00;;;;;13.72;35.82;99902.16;146608;618;47011;-70
2023/11/26 10:52:59;;;;;;;;;10.50;7.00;;;;;13.84;37.58;99909.41;146605;582;47914;-70
2023/11/26 10:55:58;;;;;;;;;10.25;9.25;;;;;13.96;35.22;99921.84;146607;606;47010;-70
2023/11/26 10:58:58;;;;;;;;;5.33;4.33;;;;;13.93;33.71;99922.66;146613;587;46012;-70
2023/11/26 11:01:53;;;;;;;;;6.50;5.75;;;;;13.84;33.69;99933.72;146613;569;46014;-68
2023/11/26 11:04:51;;;;;;;;;10.00;8.00;;;;;13.67;33.52;99937.59;146606;650;46016;-70
2023/11/26 11:07:49;;;;;;;;;9.25;8.25;;;;;13.59;33.37;99940.03;146611;634;46020;-70
2023/11/26 11:11:22;;;;;;;;;4.25;4.25;;;;;13.67;34.89;99942.81;146606;669;48012;-68
2023/11/26 11:14:22;;;;;;;;;8.00;8.00;;;;;13.75;34.03;99954.34;146614;635;46010;-68
2023/11/26 11:17:44;;;;;;;;;;;;;;;;;;;;;
2023/11/26 11:21:13;;;;;;;;;6.75;5.75;;;;;14.03;35.27;99973.28;146610;687;45022;-71
2023/11/26 11:24:27;;;;;;;;;12.50;11.50;;;;;12.73;38.13;99722.50;146608;661;46016;-72
2023/11/26 11:27:58;;;;;;;;;6.25;6.25;;;;;12.94;31.41;99715.28;146615;593;47021;-72
2023/11/26 11:31:00;;;;;;;;;5.00;5.00;;;;;14.50;33.48;99987.47;146611;711;46016;-69
2023/11/26 11:34:22;;;;;;;;;6.00;5.00;;;;;13.20;37.46;99757.56;146616;570;46020;-71
2023/11/26 11:37:28;;;;;;;;;7.00;5.00;;;;;14.67;33.74;100006.19;146612;679;46012;-71
2023/11/26 11:41:11;;;;;;;;;;;;;;;;;;;;;
2023/11/26 11:44:40;;;;;;;;;9.00;7.50;;;;;13.57;33.53;99771.53;146607;570;46016;-71
2023/11/26 11:47:48;;;;;;;;;6.33;6.33;;;;;14.94;31.20;100011.13;146616;570;46020;-72
2023/11/26 11:50:41;;;;;;;;;6.75;6.75;;;;;14.86;31.10;100017.00;146611;643;46016;-71
2023/11/26 11:53:38;;;;;;;;;7.00;6.00;;;;;14.68;31.40;100039.25;146613;610;46020;-69
2023/11/26 11:56:55;;;;;;;;;11.25;11.00;;;;;14.43;30.42;100047.28;146608;706;46016;-70
2023/11/26 12:00:11;;;;;;;;;14.00;13.50;;;;;14.21;30.80;100040.66;146609;606;46010;-71
2023/11/26 12:03:17;;;;;;;;;6.50;5.75;;;;;14.10;30.01;100038.62;146611;572;47013;-73
2023/11/26 12:06:52;;;;;;;;;11.25;9.75;;;;;12.56;31.44;99774.09;146612;579;46021;-76
2023/11/26 12:09:52;;;;;;;;;17.00;13.00;;;;;14.18;32.87;100043.19;146608;580;45034;-72
2023/11/26 12:12:51;;;;;;;;;19.25;15.75;;;;;14.40;34.04;100055.03;146610;606;46012;-73
2023/11/26 12:16:19;;;;;;;;;9.00;7.00;;;;;14.56;32.39;100054.59;146609;582;45039;-70
2023/11/26 12:19:33;;;;;;;;;;;;;;;;;;;;;
2023/11/26 12:22:52;;;;;;;;;21.50;15.75;;;;;14.95;35.17;100049.44;146605;641;47012;-71
2023/11/26 12:26:12;;;;;;;;;14.25;12.25;;;;;13.71;34.35;99824.84;146609;613;46029;-71
2023/11/26 12:29:14;;;;;;;;;14.00;12.75;;;;;15.24;32.27;100070.97;146606;632;46028;-72
2023/11/26 12:32:21;;;;;;;;;8.75;7.00;;;;;15.44;34.88;100078.34;146613;678;46010;-70
2023/11/26 12:35:31;;;;;;;;;8.00;6.25;;;;;14.03;32.69;99817.75;146608;638;46016;-70
2023/11/26 12:38:40;;;;;;;;;15.75;13.00;;;;;15.78;35.95;100086.94;146609;563;46020;-73
2023/11/26 12:41:46;;;;;;;;;17.00;16.25;;;;;15.89;34.36;100098.50;146604;601;46016;-72
2023/11/26 12:44:42;;;;;;;;;24.00;20.00;;;;;16.08;33.21;100104.97;146610;590;46014;-71
2023/11/26 12:47:35;;;;;;;;;13.00;10.75;;;;;16.33;32.36;100099.31;146607;570;45036;-73
2023/11/26 12:50:57;;;;;;;;;7.75;5.25;;;;;15.06;35.78;99874.75;146612;603;46020;-71
2023/11/26 12:54:06;;;;;;;;;7.25;6.25;;;;;15.22;35.09;99883.75;146608;587;46016;-71
2023/11/26 12:57:18;;;;;;;;;18.25;16.00;;;;;16.83;31.85;100124.63;146608;565;46021;-71
2023/11/26 13:00:27;;;;;;;;;13.25;12.25;;;;;15.82;35.49;99939.75;146607;577;46014;-70
2023/11/26 13:03:51;;;;;;;;;34.75;31.00;;;;;15.69;35.63;99916.00;146611;677;46021;-71
2023/11/26 13:06:59;;;;;;;;;12.75;12.00;;;;;17.12;36.22;100153.88;146604;664;48012;-71
2023/11/26 13:10:11;;;;;;;;;;;;;;;;;;;;;
2023/11/26 13:13:40;;;;;;;;;12.33;9.67;;;;;17.32;32.46;100156.84;146608;574;46016;-71
2023/11/26 13:16:41;;;;;;;;;10.25;9.00;;;;;17.19;31.65;100166.22;146617;595;46020;-72
2023/11/26 13:19:49;;;;;;;;;6.33;6.33;;;;;17.09;33.15;100169.56;146611;590;46016;-71
2023/11/26 13:22:44;;;;;;;;;16.50;13.50;;;;;17.10;31.19;100168.69;146608;685;46020;-71
2023/11/26 13:25:50;;;;;;;;;;;;;;;;;;;;;
2023/11/26 13:28:45;;;;;;;;;20.50;18.00;;;;;17.24;32.40;100192.50;146606;609;46020;-71
2023/11/26 13:31:42;;;;;;;;;11.00;9.00;;;;;17.30;31.01;100187.34;146613;636;46012;-71
2023/11/26 13:35:16;;;;;;;;;14.00;11.00;;;;;15.59;29.98;99934.06;146604;597;48010;-71
2023/11/26 13:38:29;;;;;;;;;9.75;9.00;;;;;16.99;34.07;100201.69;146606;588;47014;-71
2023/11/26 13:41:26;;;;;;;;;6.00;6.00;;;;;16.85;31.18;100190.97;146609;580;46020;-72
2023/11/26 13:44:44;;;;;;;;;12.00;9.50;;;;;16.91;31.16;100212.03;146605;701;46016;-71
2023/11/26 13:48:10;;;;;;;;;10.33;10.33;;;;;16.90;31.55;100204.16;146609;572;46021;-73
2023/11/26 13:51:28;;;;;;;;;5.00;3.67;;;;;16.79;34.33;100209.19;146613;579;46016;-71
2023/11/26 13:54:40;;;;;;;;;15.75;14.75;;;;;16.73;35.79;100233.53;146610;598;46010;-71
2023/11/26 13:57:42;;;;;;;;;30.00;27.25;;;;;16.67;34.60;100222.94;146607;581;47012;-72
2023/11/26 14:00:41;;;;;;;;;13.33;11.67;;;;;16.62;34.08;100243.78;146609;633;47014;-72
2023/11/26 14:03:41;;;;;;;;;27.50;27.50;;;;;16.54;31.99;100236.63;146604;581;46016;-71
2023/11/26 14:06:41;;;;;;;;;16.00;13.50;;;;;16.40;32.12;100254.69;146610;595;46010;-71
2023/11/26 14:09:45;;;;;;;;;10.33;10.00;;;;;16.22;31.77;100255.19;146606;581;46039;-72
2023/11/26 14:12:37;;;;;;;;;23.00;21.25;;;;;15.92;30.80;100258.03;146607;599;46020;-71
2023/11/26 14:15:33;;;;;;;;;19.25;16.75;;;;;15.48;29.54;100270.91;146606;603;46014;-71
2023/11/26 14:18:35;;;;;;;;;16.00;14.50;;;;;14.93;30.79;100278.25;146608;669;46011;-71
2023/11/26 14:21:39;;;;;;;;;15.00;13.00;;;;;14.39;33.65;100278.47;146609;639;46012;-71
2023/11/26 14:24:38;;;;;;;;;17.25;13.50;;;;;13.87;30.85;100292.56;146609;570;46011;-68
2023/11/26 14:27:57;;;;;;;;;22.00;18.50;;;;;13.40;32.62;100297.16;146607;569;46012;-71
2023/11/26 14:31:01;;;;;;;;;15.50;10.75;;;;;11.46;35.06;100055.41;146609;605;46012;-72
2023/11/26 14:33:56;;;;;;;;;12.00;11.00;;;;;12.66;31.39;100325.78;146609;582;46016;-72
2023/11/26 14:36:52;;;;;;;;;13.75;13.00;;;;;12.38;32.33;100334.28;146608;595;46020;-70
2023/11/26 14:40:09;;;;;;;;;;;;;;;;;;;;;
2023/11/26 14:43:05;;;;;;;;;22.00;18.75;;;;;12.07;35.61;100355.63;146607;637;46917;-70
2023/11/26 14:46:10;;;;;;;;;11.25;11.00;;;;;11.92;33.92;100355.87;146603;577;46016;-70
2023/11/26 14:49:14;;;;;;;;;10.00;9.00;;;;;11.75;34.12;100368.19;146608;574;47010;-70
2023/11/26 14:52:31;;;;;;;;;9.75;8.25;;;;;10.00;35.81;100102.22;146612;614;46012;-71
2023/11/26 14:55:27;;;;;;;;;17.00;14.00;;;;;11.41;34.65;100380.59;146610;600;46021;-71
2023/11/26 14:58:38;;;;;;;;;19.75;17.00;;;;;11.27;35.80;100385.19;146608;672;46012;-71